sensor_id;sensor_type;location;lat;lon;timestamp;pressure;altitude;pressure_sealevel;temperature
71640;BMP280;60912;48.968;10.124;2023-02-26T00:21:00;95980.59;;;0.64
71640;BMP280;60912;48.968;10.124;2023-02-26T00:33:39;95995.63;;;0.65
71640;BMP280;60912;48.968;10.124;2023-02-26T00:54:42;95995.78;;;0.51
71640;BMP280;60912;48.968;10.124;2023-02-26T00:57:08;96006.41;;;0.49
71640;BMP280;60912;48.968;10.124;2023-02-26T00:59:56;95993.06;;;0.45
71640;BMP280;60912;48.968;10.124;2023-02-26T01:05:28;96003.16;;;0.45
71640;BMP280;60912;48.968;10.124;2023-02-26T01:08:19;96009.09;;;0.49
71640;BMP280;60912;48.968;10.124;2023-02-26T01:10:51;95999.75;;;0.50
71640;BMP280;60912;48.968;10.124;2023-02-26T01:13:22;95998.75;;;0.53
71640;BMP280;60912;48.968;10.124;2023-02-26T01:15:53;96009.66;;;0.58
71640;BMP280;60912;48.968;10.124;2023-02-26T01:18:25;96007.19;;;0.60
71640;BMP280;60912;48.968;10.124;2023-02-26T01:21:27;96010.88;;;0.57
71640;BMP280;60912;48.968;10.124;2023-02-26T01:26:39;96001.00;;;0.54
71640;BMP280;60912;48.968;10.124;2023-02-26T01:29:35;96009.84;;;0.49
71640;BMP280;60912;48.968;10.124;2023-02-26T01:35:57;96006.34;;;0.43
71640;BMP280;60912;48.968;10.124;2023-02-26T01:49:28;96003.78;;;0.23
71640;BMP280;60912;48.968;10.124;2023-02-26T01:51:56;96003.53;;;0.21
71640;BMP280;60912;48.968;10.124;2023-02-26T01:54:26;95997.56;;;0.17
71640;BMP280;60912;48.968;10.124;2023-02-26T01:57:06;96002.22;;;0.11
71640;BMP280;60912;48.968;10.124;2023-02-26T01:59:35;95999.25;;;0.09
71640;BMP280;60912;48.968;10.124;2023-02-26T02:02:03;96002.97;;;0.11
71640;BMP280;60912;48.968;10.124;2023-02-26T02:04:31;96006.38;;;0.06
71640;BMP280;60912;48.968;10.124;2023-02-26T02:06:58;96007.31;;;0.03
71640;BMP280;60912;48.968;10.124;2023-02-26T02:09:24;96004.63;;;0.03
71640;BMP280;60912;48.968;10.124;2023-02-26T02:14:59;96002.66;;;0.04
71640;BMP280;60912;48.968;10.124;2023-02-26T02:17:43;95999.44;;;-0.01
71640;BMP280;60912;48.968;10.124;2023-02-26T02:31:53;96004.63;;;-0.28
71640;BMP280;60912;48.968;10.124;2023-02-26T02:42:45;96019.75;;;-0.37
71640;BMP280;60912;48.968;10.124;2023-02-26T02:45:27;96026.13;;;-0.40
71640;BMP280;60912;48.968;10.124;2023-02-26T02:47:59;96023.69;;;-0.38
71640;BMP280;60912;48.968;10.124;2023-02-26T02:50:30;96017.31;;;-0.35
71640;BMP280;60912;48.968;10.124;2023-02-26T02:53:00;96018.81;;;-0.33
71640;BMP280;60912;48.968;10.124;2023-02-26T02:55:34;96021.06;;;-0.32
71640;BMP280;60912;48.968;10.124;2023-02-26T02:58:05;96027.50;;;-0.50
71640;BMP280;60912;48.968;10.124;2023-02-26T03:00:36;96031.81;;;-0.63
71640;BMP280;60912;48.968;10.124;2023-02-26T03:03:17;96028.56;;;-0.67
71640;BMP280;60912;48.968;10.124;2023-02-26T03:05:43;96031.25;;;-0.67
71640;BMP280;60912;48.968;10.124;2023-02-26T03:08:12;96034.75;;;-0.61
71640;BMP280;60912;48.968;10.124;2023-02-26T03:10:38;96041.94;;;-0.58
71640;BMP280;60912;48.968;10.124;2023-02-26T03:13:20;96033.41;;;-0.72
71640;BMP280;60912;48.968;10.124;2023-02-26T03:22:24;96045.41;;;-1.19
71640;BMP280;60912;48.968;10.124;2023-02-26T03:27:34;96048.44;;;-1.31
71640;BMP280;60912;48.968;10.124;2023-02-26T03:38:28;96055.53;;;-1.49
71640;BMP280;60912;48.968;10.124;2023-02-26T03:41:11;96060.41;;;-1.53
71640;BMP280;60912;48.968;10.124;2023-02-26T03:46:14;96066.03;;;-1.51
71640;BMP280;60912;48.968;10.124;2023-02-26T03:48:41;96068.88;;;-1.60
71640;BMP280;60912;48.968;10.124;2023-02-26T03:51:09;96073.53;;;-1.75
71640;BMP280;60912;48.968;10.124;2023-02-26T03:53:42;96077.56;;;-1.85
71640;BMP280;60912;48.968;10.124;2023-02-26T03:56:21;96076.97;;;-1.89
71640;BMP280;60912;48.968;10.124;2023-02-26T03:58:49;96075.97;;;-1.92
71640;BMP280;60912;48.968;10.124;2023-02-26T04:01:25;96084.91;;;-1.86
71640;BMP280;60912;48.968;10.124;2023-02-26T04:04:23;96081.09;;;-1.79
71640;BMP280;60912;48.968;10.124;2023-02-26T04:06:52;96082.03;;;-1.82
71640;BMP280;60912;48.968;10.124;2023-02-26T04:09:20;96097.97;;;-1.84
71640;BMP280;60912;48.968;10.124;2023-02-26T04:11:48;96099.53;;;-1.77
71640;BMP280;60912;48.968;10.124;2023-02-26T04:14:13;96097.84;;;-1.75
71640;BMP280;60912;48.968;10.124;2023-02-26T04:16:40;96093.88;;;-1.80
71640;BMP280;60912;48.968;10.124;2023-02-26T04:19:06;96114.25;;;-1.79
71640;BMP280;60912;48.968;10.124;2023-02-26T04:21:31;96098.69;;;-1.84
71640;BMP280;60912;48.968;10.124;2023-02-26T04:23:56;96103.06;;;-1.86
71640;BMP280;60912;48.968;10.124;2023-02-26T04:26:22;96096.25;;;-1.96
71640;BMP280;60912;48.968;10.124;2023-02-26T04:28:47;96112.84;;;-2.03
71640;BMP280;60912;48.968;10.124;2023-02-26T04:31:13;96116.63;;;-1.95
71640;BMP280;60912;48.968;10.124;2023-02-26T04:33:39;96110.69;;;-1.99
71640;BMP280;60912;48.968;10.124;2023-02-26T04:36:05;96116.06;;;-1.99
71640;BMP280;60912;48.968;10.124;2023-02-26T04:38:30;96119.34;;;-1.95
71640;BMP280;60912;48.968;10.124;2023-02-26T04:40:56;96125.41;;;-1.86
71640;BMP280;60912;48.968;10.124;2023-02-26T04:43:21;96124.09;;;-1.90
71640;BMP280;60912;48.968;10.124;2023-02-26T04:45:47;96128.94;;;-1.94
71640;BMP280;60912;48.968;10.124;2023-02-26T04:48:14;96134.41;;;-1.89
71640;BMP280;60912;48.968;10.124;2023-02-26T04:50:40;96132.19;;;-1.90
71640;BMP280;60912;48.968;10.124;2023-02-26T04:53:06;96131.56;;;-1.85
71640;BMP280;60912;48.968;10.124;2023-02-26T04:55:33;96137.53;;;-1.81
71640;BMP280;60912;48.968;10.124;2023-02-26T04:57:58;96135.31;;;-1.68
71640;BMP280;60912;48.968;10.124;2023-02-26T05:00:24;96138.25;;;-1.51
71640;BMP280;60912;48.968;10.124;2023-02-26T05:02:50;96139.19;;;-1.39
71640;BMP280;60912;48.968;10.124;2023-02-26T05:05:15;96137.22;;;-1.24
71640;BMP280;60912;48.968;10.124;2023-02-26T05:07:41;96144.75;;;-1.14
71640;BMP280;60912;48.968;10.124;2023-02-26T05:10:07;96152.84;;;-1.14
71640;BMP280;60912;48.968;10.124;2023-02-26T05:12:32;96153.53;;;-1.19
71640;BMP280;60912;48.968;10.124;2023-02-26T05:14:58;96146.97;;;-1.12
71640;BMP280;60912;48.968;10.124;2023-02-26T05:17:24;96155.75;;;-1.02
71640;BMP280;60912;48.968;10.124;2023-02-26T05:19:49;96158.03;;;-0.95
71640;BMP280;60912;48.968;10.124;2023-02-26T05:22:15;96156.41;;;-0.87
71640;BMP280;60912;48.968;10.124;2023-02-26T05:24:40;96160.69;;;-0.81
71640;BMP280;60912;48.968;10.124;2023-02-26T05:27:05;96158.28;;;-0.79
71640;BMP280;60912;48.968;10.124;2023-02-26T05:29:31;96161.91;;;-0.82
71640;BMP280;60912;48.968;10.124;2023-02-26T05:31:56;96153.53;;;-0.84
71640;BMP280;60912;48.968;10.124;2023-02-26T05:34:22;96153.25;;;-0.86
71640;BMP280;60912;48.968;10.124;2023-02-26T05:36:48;96155.47;;;-0.84
71640;BMP280;60912;48.968;10.124;2023-02-26T05:39:21;96159.97;;;-0.81
71640;BMP280;60912;48.968;10.124;2023-02-26T05:41:46;96156.22;;;-0.84
71640;BMP280;60912;48.968;10.124;2023-02-26T05:44:12;96154.94;;;-0.88
71640;BMP280;60912;48.968;10.124;2023-02-26T05:47:01;96160.16;;;-0.85
71640;BMP280;60912;48.968;10.124;2023-02-26T05:57:07;96181.25;;;-0.89
71640;BMP280;60912;48.968;10.124;2023-02-26T06:09:00;96185.50;;;-0.82
71640;BMP280;60912;48.968;10.124;2023-02-26T06:12:14;96186.81;;;-0.78
71640;BMP280;60912;48.968;10.124;2023-02-26T06:14:58;96188.56;;;-0.75
71640;BMP280;60912;48.968;10.124;2023-02-26T06:17:24;96201.16;;;-0.72
71640;BMP280;60912;48.968;10.124;2023-02-26T06:19:52;96201.44;;;-0.69
71640;BMP280;60912;48.968;10.124;2023-02-26T06:22:38;96199.13;;;-0.77
71640;BMP280;60912;48.968;10.124;2023-02-26T06:25:03;96208.72;;;-0.76
71640;BMP280;60912;48.968;10.124;2023-02-26T06:27:37;96212.84;;;-0.80
71640;BMP280;60912;48.968;10.124;2023-02-26T06:30:26;96214.13;;;-0.76
71640;BMP280;60912;48.968;10.124;2023-02-26T06:32:54;96219.44;;;-0.66
71640;BMP280;60912;48.968;10.124;2023-02-26T06:35:20;96218.50;;;-0.63
71640;BMP280;60912;48.968;10.124;2023-02-26T06:37:45;96226.69;;;-0.58
71640;BMP280;60912;48.968;10.124;2023-02-26T06:40:14;96228.16;;;-0.57
71640;BMP280;60912;48.968;10.124;2023-02-26T06:42:39;96232.28;;;-0.61
71640;BMP280;60912;48.968;10.124;2023-02-26T06:45:05;96241.22;;;-0.55
71640;BMP280;60912;48.968;10.124;2023-02-26T06:47:30;96243.69;;;-0.37
71640;BMP280;60912;48.968;10.124;2023-02-26T06:49:56;96248.16;;;0.27
71640;BMP280;60912;48.968;10.124;2023-02-26T06:52:21;96249.81;;;0.70
71640;BMP280;60912;48.968;10.124;2023-02-26T06:54:47;96251.66;;;0.85
71640;BMP280;60912;48.968;10.124;2023-02-26T06:57:12;96254.69;;;0.92
71640;BMP280;60912;48.968;10.124;2023-02-26T06:59:37;96260.44;;;1.00
71640;BMP280;60912;48.968;10.124;2023-02-26T07:02:03;96267.38;;;1.06
71640;BMP280;60912;48.968;10.124;2023-02-26T07:04:28;96269.91;;;1.16
71640;BMP280;60912;48.968;10.124;2023-02-26T07:06:54;96266.06;;;0.96
71640;BMP280;60912;48.968;10.124;2023-02-26T07:09:19;96281.97;;;0.83
71640;BMP280;60912;48.968;10.124;2023-02-26T07:11:45;96280.47;;;0.56
71640;BMP280;60912;48.968;10.124;2023-02-26T07:14:10;96284.84;;;0.74
71640;BMP280;60912;48.968;10.124;2023-02-26T07:16:36;96287.19;;;1.50
71640;BMP280;60912;48.968;10.124;2023-02-26T07:19:02;96284.34;;;1.70
71640;BMP280;60912;48.968;10.124;2023-02-26T07:21:27;96288.03;;;2.32
71640;BMP280;60912;48.968;10.124;2023-02-26T07:23:53;96295.81;;;3.28
71640;BMP280;60912;48.968;10.124;2023-02-26T07:26:18;96291.84;;;4.56
71640;BMP280;60912;48.968;10.124;2023-02-26T07:28:43;96288.91;;;4.89
71640;BMP280;60912;48.968;10.124;2023-02-26T07:31:09;96293.16;;;4.43
71640;BMP280;60912;48.968;10.124;2023-02-26T07:33:34;96292.66;;;3.93
71640;BMP280;60912;48.968;10.124;2023-02-26T07:36:00;96296.53;;;3.45
71640;BMP280;60912;48.968;10.124;2023-02-26T07:38:26;96303.22;;;3.05
71640;BMP280;60912;48.968;10.124;2023-02-26T07:40:54;96313.38;;;2.93
71640;BMP280;60912;48.968;10.124;2023-02-26T07:43:21;96317.56;;;2.94
71640;BMP280;60912;48.968;10.124;2023-02-26T07:45:49;96307.44;;;2.84
71640;BMP280;60912;48.968;10.124;2023-02-26T07:48:14;96315.13;;;2.91
71640;BMP280;60912;48.968;10.124;2023-02-26T07:50:40;96316.53;;;2.70
71640;BMP280;60912;48.968;10.124;2023-02-26T07:53:05;96324.63;;;2.25
71640;BMP280;60912;48.968;10.124;2023-02-26T07:55:30;96323.59;;;1.69
71640;BMP280;60912;48.968;10.124;2023-02-26T07:57:56;96332.47;;;1.32
71640;BMP280;60912;48.968;10.124;2023-02-26T08:00:21;96342.94;;;1.14
71640;BMP280;60912;48.968;10.124;2023-02-26T08:02:47;96333.16;;;0.96
71640;BMP280;60912;48.968;10.124;2023-02-26T08:05:12;96337.91;;;0.81
71640;BMP280;60912;48.968;10.124;2023-02-26T08:07:38;96341.63;;;0.57
71640;BMP280;60912;48.968;10.124;2023-02-26T08:10:03;96337.84;;;0.49
71640;BMP280;60912;48.968;10.124;2023-02-26T08:12:29;96340.69;;;0.60
71640;BMP280;60912;48.968;10.124;2023-02-26T08:14:55;96332.81;;;0.42
71640;BMP280;60912;48.968;10.124;2023-02-26T08:17:20;96342.38;;;0.58
71640;BMP280;60912;48.968;10.124;2023-02-26T08:19:46;96343.66;;;0.62
71640;BMP280;60912;48.968;10.124;2023-02-26T08:22:11;96351.22;;;0.79
71640;BMP280;60912;48.968;10.124;2023-02-26T08:24:38;96350.53;;;0.63
71640;BMP280;60912;48.968;10.124;2023-02-26T08:27:04;96343.50;;;0.51
71640;BMP280;60912;48.968;10.124;2023-02-26T08:29:29;96348.44;;;0.73
71640;BMP280;60912;48.968;10.124;2023-02-26T08:31:55;96353.66;;;1.28
71640;BMP280;60912;48.968;10.124;2023-02-26T08:34:20;96353.59;;;1.86
71640;BMP280;60912;48.968;10.124;2023-02-26T08:36:46;96341.41;;;2.24
71640;BMP280;60912;48.968;10.124;2023-02-26T08:39:11;96356.19;;;2.11
71640;BMP280;60912;48.968;10.124;2023-02-26T08:41:37;96355.31;;;1.89
71640;BMP280;60912;48.968;10.124;2023-02-26T08:44:02;96355.69;;;1.70
71640;BMP280;60912;48.968;10.124;2023-02-26T08:46:28;96359.25;;;1.88
71640;BMP280;60912;48.968;10.124;2023-02-26T08:48:53;96357.25;;;1.77
71640;BMP280;60912;48.968;10.124;2023-02-26T08:51:22;96363.31;;;1.66
71640;BMP280;60912;48.968;10.124;2023-02-26T08:53:47;96364.25;;;1.58
71640;BMP280;60912;48.968;10.124;2023-02-26T08:56:15;96369.13;;;1.54
71640;BMP280;60912;48.968;10.124;2023-02-26T08:58:40;96376.97;;;1.15
71640;BMP280;60912;48.968;10.124;2023-02-26T09:01:06;96390.56;;;0.68
71640;BMP280;60912;48.968;10.124;2023-02-26T09:03:32;96390.41;;;0.57
71640;BMP280;60912;48.968;10.124;2023-02-26T09:05:57;96397.00;;;0.71
71640;BMP280;60912;48.968;10.124;2023-02-26T09:08:30;96390.81;;;0.70
71640;BMP280;60912;48.968;10.124;2023-02-26T09:11:19;96401.66;;;0.70
71640;BMP280;60912;48.968;10.124;2023-02-26T09:14:19;96400.91;;;1.16
71640;BMP280;60912;48.968;10.124;2023-02-26T09:17:05;96410.56;;;1.17
71640;BMP280;60912;48.968;10.124;2023-02-26T09:19:38;96411.16;;;1.01
71640;BMP280;60912;48.968;10.124;2023-02-26T09:25:23;96413.19;;;0.65
71640;BMP280;60912;48.968;10.124;2023-02-26T09:27:49;96426.63;;;0.75
71640;BMP280;60912;48.968;10.124;2023-02-26T09:33:31;96424.16;;;0.77
71640;BMP280;60912;48.968;10.124;2023-02-26T09:35:57;96428.25;;;0.66
71640;BMP280;60912;48.968;10.124;2023-02-26T09:38:22;96434.41;;;0.87
71640;BMP280;60912;48.968;10.124;2023-02-26T09:40:56;96435.91;;;0.48
71640;BMP280;60912;48.968;10.124;2023-02-26T09:48:52;96440.31;;;0.45
71640;BMP280;60912;48.968;10.124;2023-02-26T09:51:24;96450.63;;;0.61
71640;BMP280;60912;48.968;10.124;2023-02-26T09:53:51;96445.38;;;0.78
71640;BMP280;60912;48.968;10.124;2023-02-26T09:56:25;96448.97;;;0.90
71640;BMP280;60912;48.968;10.124;2023-02-26T09:59:03;96453.13;;;0.85
71640;BMP280;60912;48.968;10.124;2023-02-26T10:12:43;96463.50;;;1.07
71640;BMP280;60912;48.968;10.124;2023-02-26T10:23:46;96471.59;;;1.27
71640;BMP280;60912;48.968;10.124;2023-02-26T10:26:27;96472.44;;;1.13
71640;BMP280;60912;48.968;10.124;2023-02-26T10:34:59;96487.69;;;0.90
71640;BMP280;60912;48.968;10.124;2023-02-26T10:37:58;96500.09;;;0.77
71640;BMP280;60912;48.968;10.124;2023-02-26T10:51:22;96504.69;;;0.50
71640;BMP280;60912;48.968;10.124;2023-02-26T10:54:08;96504.69;;;0.50
71640;BMP280;60912;48.968;10.124;2023-02-26T10:56:46;96515.75;;;0.67
71640;BMP280;60912;48.968;10.124;2023-02-26T10:59:12;96493.75;;;0.80
71640;BMP280;60912;48.968;10.124;2023-02-26T11:01:38;96505.00;;;0.93
71640;BMP280;60912;48.968;10.124;2023-02-26T11:04:16;96499.09;;;0.94
71640;BMP280;60912;48.968;10.124;2023-02-26T11:06:50;96497.66;;;1.19
71640;BMP280;60912;48.968;10.124;2023-02-26T11:09:58;96496.34;;;1.61
71640;BMP280;60912;48.968;10.124;2023-02-26T11:12:31;96485.63;;;1.77
71640;BMP280;60912;48.968;10.124;2023-02-26T11:15:29;96493.94;;;1.42
71640;BMP280;60912;48.968;10.124;2023-02-26T11:17:59;96486.13;;;1.04
71640;BMP280;60912;48.968;10.124;2023-02-26T11:20:41;96497.41;;;0.97
71640;BMP280;60912;48.968;10.124;2023-02-26T11:23:19;96483.44;;;0.84
71640;BMP280;60912;48.968;10.124;2023-02-26T11:26:08;96490.94;;;1.15
71640;BMP280;60912;48.968;10.124;2023-02-26T11:28:57;96495.78;;;1.25
71640;BMP280;60912;48.968;10.124;2023-02-26T11:31:23;96496.19;;;1.18
71640;BMP280;60912;48.968;10.124;2023-02-26T11:34:02;96490.34;;;1.51
71640;BMP280;60912;48.968;10.124;2023-02-26T11:36:30;96496.22;;;2.07
71640;BMP280;60912;48.968;10.124;2023-02-26T11:42:15;96498.81;;;1.90
71640;BMP280;60912;48.968;10.124;2023-02-26T11:44:56;96496.59;;;1.89
71640;BMP280;60912;48.968;10.124;2023-02-26T11:50:55;96483.50;;;1.87
71640;BMP280;60912;48.968;10.124;2023-02-26T11:53:58;96498.25;;;1.80
71640;BMP280;60912;48.968;10.124;2023-02-26T11:59:07;96477.34;;;1.61
71640;BMP280;60912;48.968;10.124;2023-02-26T12:01:52;96486.50;;;1.63
71640;BMP280;60912;48.968;10.124;2023-02-26T12:05:09;96491.13;;;1.57
71640;BMP280;60912;48.968;10.124;2023-02-26T12:08:25;96493.81;;;1.52
71640;BMP280;60912;48.968;10.124;2023-02-26T12:30:46;96488.59;;;1.74
71640;BMP280;60912;48.968;10.124;2023-02-26T12:40:02;96476.38;;;2.27
71640;BMP280;60912;48.968;10.124;2023-02-26T12:42:49;96481.66;;;2.47
71640;BMP280;60912;48.968;10.124;2023-02-26T13:16:35;96502.78;;;2.20
71640;BMP280;60912;48.968;10.124;2023-02-26T13:21:59;96498.41;;;2.34
71640;BMP280;60912;48.968;10.124;2023-02-26T13:24:37;96505.53;;;2.32
71640;BMP280;60912;48.968;10.124;2023-02-26T13:27:04;96510.03;;;2.35
71640;BMP280;60912;48.968;10.124;2023-02-26T13:29:36;96525.00;;;2.19
71640;BMP280;60912;48.968;10.124;2023-02-26T13:32:20;96512.13;;;2.14
71640;BMP280;60912;48.968;10.124;2023-02-26T13:35:17;96515.81;;;2.16
71640;BMP280;60912;48.968;10.124;2023-02-26T13:37:44;96510.16;;;2.14
71640;BMP280;60912;48.968;10.124;2023-02-26T13:51:45;96498.44;;;2.40
71640;BMP280;60912;48.968;10.124;2023-02-26T14:07:53;96524.28;;;1.93
71640;BMP280;60912;48.968;10.124;2023-02-26T14:16:34;96519.94;;;2.06
71640;BMP280;60912;48.968;10.124;2023-02-26T14:19:21;96525.03;;;1.93
71640;BMP280;60912;48.968;10.124;2023-02-26T14:21:56;96515.91;;;1.96
71640;BMP280;60912;48.968;10.124;2023-02-26T14:24:34;96528.56;;;1.99
71640;BMP280;60912;48.968;10.124;2023-02-26T14:29:55;96523.31;;;1.96
71640;BMP280;60912;48.968;10.124;2023-02-26T14:32:38;96530.13;;;2.11
71640;BMP280;60912;48.968;10.124;2023-02-26T14:38:36;96547.41;;;2.08
71640;BMP280;60912;48.968;10.124;2023-02-26T14:41:30;96550.03;;;1.97
71640;BMP280;60912;48.968;10.124;2023-02-26T14:44:24;96547.47;;;1.88
71640;BMP280;60912;48.968;10.124;2023-02-26T14:53:50;96557.69;;;2.25
71640;BMP280;60912;48.968;10.124;2023-02-26T15:18:36;96571.31;;;2.04
71640;BMP280;60912;48.968;10.124;2023-02-26T15:23:54;96581.63;;;1.95
71640;BMP280;60912;48.968;10.124;2023-02-26T15:26:31;96596.84;;;1.87
71640;BMP280;60912;48.968;10.124;2023-02-26T15:29:02;96582.56;;;1.66
71640;BMP280;60912;48.968;10.124;2023-02-26T15:31:36;96586.91;;;1.78
71640;BMP280;60912;48.968;10.124;2023-02-26T15:34:02;96585.16;;;1.75
71640;BMP280;60912;48.968;10.124;2023-02-26T15:36:29;96595.38;;;1.86
71640;BMP280;60912;48.968;10.124;2023-02-26T15:38:57;96592.16;;;1.87
71640;BMP280;60912;48.968;10.124;2023-02-26T15:41:27;96588.75;;;1.92
71640;BMP280;60912;48.968;10.124;2023-02-26T15:43:56;96598.13;;;1.91
71640;BMP280;60912;48.968;10.124;2023-02-26T15:46:28;96598.75;;;2.01
71640;BMP280;60912;48.968;10.124;2023-02-26T15:48:59;96594.88;;;1.87
71640;BMP280;60912;48.968;10.124;2023-02-26T15:51:25;96594.41;;;1.89
71640;BMP280;60912;48.968;10.124;2023-02-26T15:53:52;96608.22;;;1.85
71640;BMP280;60912;48.968;10.124;2023-02-26T15:56:29;96599.00;;;1.77
71640;BMP280;60912;48.968;10.124;2023-02-26T15:59:05;96608.38;;;1.76
71640;BMP280;60912;48.968;10.124;2023-02-26T16:01:35;96601.84;;;1.68
71640;BMP280;60912;48.968;10.124;2023-02-26T16:04:04;96616.97;;;1.49
71640;BMP280;60912;48.968;10.124;2023-02-26T16:06:41;96619.59;;;1.43
71640;BMP280;60912;48.968;10.124;2023-02-26T16:09:15;96621.28;;;1.40
71640;BMP280;60912;48.968;10.124;2023-02-26T16:11:42;96625.22;;;1.39
71640;BMP280;60912;48.968;10.124;2023-02-26T16:14:16;96623.41;;;1.31
71640;BMP280;60912;48.968;10.124;2023-02-26T16:16:47;96624.91;;;1.32
71640;BMP280;60912;48.968;10.124;2023-02-26T16:19:34;96636.81;;;1.40
71640;BMP280;60912;48.968;10.124;2023-02-26T16:22:07;96631.94;;;1.44
71640;BMP280;60912;48.968;10.124;2023-02-26T16:24:35;96637.56;;;1.40
71640;BMP280;60912;48.968;10.124;2023-02-26T16:27:06;96644.91;;;1.34
71640;BMP280;60912;48.968;10.124;2023-02-26T16:29:44;96655.09;;;1.19
71640;BMP280;60912;48.968;10.124;2023-02-26T16:32:13;96657.34;;;1.21
71640;BMP280;60912;48.968;10.124;2023-02-26T16:34:42;96656.13;;;1.22
71640;BMP280;60912;48.968;10.124;2023-02-26T16:40:04;96668.19;;;1.21
71640;BMP280;60912;48.968;10.124;2023-02-26T16:47:43;96686.56;;;1.11
71640;BMP280;60912;48.968;10.124;2023-02-26T16:50:16;96675.56;;;1.00
71640;BMP280;60912;48.968;10.124;2023-02-26T16:52:41;96684.22;;;1.04
71640;BMP280;60912;48.968;10.124;2023-02-26T16:55:11;96695.94;;;1.10
71640;BMP280;60912;48.968;10.124;2023-02-26T16:57:43;96699.97;;;1.00
71640;BMP280;60912;48.968;10.124;2023-02-26T17:00:36;96704.44;;;1.03
71640;BMP280;60912;48.968;10.124;2023-02-26T17:03:12;96707.44;;;1.05
71640;BMP280;60912;48.968;10.124;2023-02-26T17:08:19;96724.69;;;0.87
71640;BMP280;60912;48.968;10.124;2023-02-26T17:10:50;96723.06;;;0.81
71640;BMP280;60912;48.968;10.124;2023-02-26T17:13:24;96729.91;;;0.76
71640;BMP280;60912;48.968;10.124;2023-02-26T17:15:50;96733.75;;;0.69
71640;BMP280;60912;48.968;10.124;2023-02-26T17:18:18;96738.41;;;0.69
71640;BMP280;60912;48.968;10.124;2023-02-26T17:20:44;96733.47;;;0.67
71640;BMP280;60912;48.968;10.124;2023-02-26T17:23:14;96733.75;;;0.69
71640;BMP280;60912;48.968;10.124;2023-02-26T17:25:48;96734.88;;;0.63
71640;BMP280;60912;48.968;10.124;2023-02-26T17:28:26;96742.81;;;0.66
71640;BMP280;60912;48.968;10.124;2023-02-26T17:30:53;96751.31;;;0.59
71640;BMP280;60912;48.968;10.124;2023-02-26T17:33:18;96748.97;;;0.52
71640;BMP280;60912;48.968;10.124;2023-02-26T17:35:47;96755.88;;;0.53
71640;BMP280;60912;48.968;10.124;2023-02-26T17:38:14;96758.31;;;0.51
71640;BMP280;60912;48.968;10.124;2023-02-26T17:40:41;96763.94;;;0.48
71640;BMP280;60912;48.968;10.124;2023-02-26T17:43:07;96772.63;;;0.37
71640;BMP280;60912;48.968;10.124;2023-02-26T17:45:36;96774.75;;;0.33
71640;BMP280;60912;48.968;10.124;2023-02-26T17:48:10;96774.47;;;0.31
71640;BMP280;60912;48.968;10.124;2023-02-26T17:50:51;96778.03;;;0.37
71640;BMP280;60912;48.968;10.124;2023-02-26T17:53:35;96788.50;;;0.29
71640;BMP280;60912;48.968;10.124;2023-02-26T17:56:38;96792.88;;;0.27
71640;BMP280;60912;48.968;10.124;2023-02-26T17:59:24;96788.13;;;0.22
71640;BMP280;60912;48.968;10.124;2023-02-26T18:01:53;96790.53;;;0.20
71640;BMP280;60912;48.968;10.124;2023-02-26T18:04:37;96792.38;;;0.14
71640;BMP280;60912;48.968;10.124;2023-02-26T18:07:14;96794.53;;;0.10
71640;BMP280;60912;48.968;10.124;2023-02-26T18:09:58;96790.03;;;0.07
71640;BMP280;60912;48.968;10.124;2023-02-26T18:12:37;96794.81;;;0.12
71640;BMP280;60912;48.968;10.124;2023-02-26T18:15:11;96802.66;;;0.10
71640;BMP280;60912;48.968;10.124;2023-02-26T18:18:10;96811.63;;;0.16
71640;BMP280;60912;48.968;10.124;2023-02-26T18:20:57;96812.00;;;0.09
71640;BMP280;60912;48.968;10.124;2023-02-26T18:37:41;96817.22;;;-0.12
71640;BMP280;60912;48.968;10.124;2023-02-26T18:40:11;96812.44;;;-0.17
71640;BMP280;60912;48.968;10.124;2023-02-26T18:42:39;96806.44;;;-0.21
71640;BMP280;60912;48.968;10.124;2023-02-26T18:45:05;96821.59;;;-0.14
71640;BMP280;60912;48.968;10.124;2023-02-26T18:47:31;96823.03;;;-0.28
71640;BMP280;60912;48.968;10.124;2023-02-26T18:49:59;96823.94;;;-0.31
71640;BMP280;60912;48.968;10.124;2023-02-26T18:52:28;96829.66;;;-0.29
71640;BMP280;60912;48.968;10.124;2023-02-26T18:54:59;96833.09;;;-0.28
71640;BMP280;60912;48.968;10.124;2023-02-26T18:57:27;96834.78;;;-0.31
71640;BMP280;60912;48.968;10.124;2023-02-26T18:59:53;96841.22;;;-0.38
71640;BMP280;60912;48.968;10.124;2023-02-26T19:02:21;96832.38;;;-0.38
71640;BMP280;60912;48.968;10.124;2023-02-26T19:04:47;96839.25;;;-0.37
71640;BMP280;60912;48.968;10.124;2023-02-26T19:07:13;96833.59;;;-0.39
71640;BMP280;60912;48.968;10.124;2023-02-26T19:09:39;96841.53;;;-0.36
71640;BMP280;60912;48.968;10.124;2023-02-26T19:12:34;96842.91;;;-0.40
71640;BMP280;60912;48.968;10.124;2023-02-26T19:14:59;96836.16;;;-0.45
71640;BMP280;60912;48.968;10.124;2023-02-26T19:17:45;96837.66;;;-0.44
71640;BMP280;60912;48.968;10.124;2023-02-26T19:20:25;96838.72;;;-0.50
71640;BMP280;60912;48.968;10.124;2023-02-26T19:22:50;96842.34;;;-0.53
71640;BMP280;60912;48.968;10.124;2023-02-26T19:25:18;96846.56;;;-0.52
71640;BMP280;60912;48.968;10.124;2023-02-26T19:27:49;96841.16;;;-0.52
71640;BMP280;60912;48.968;10.124;2023-02-26T19:30:31;96847.47;;;-0.55
71640;BMP280;60912;48.968;10.124;2023-02-26T19:32:59;96839.00;;;-0.48
71640;BMP280;60912;48.968;10.124;2023-02-26T19:35:25;96854.06;;;-0.47
71640;BMP280;60912;48.968;10.124;2023-02-26T19:37:54;96850.63;;;-0.57
71640;BMP280;60912;48.968;10.124;2023-02-26T19:40:26;96846.25;;;-0.54
71640;BMP280;60912;48.968;10.124;2023-02-26T19:43:04;96845.97;;;-0.56
71640;BMP280;60912;48.968;10.124;2023-02-26T19:45:30;96851.41;;;-0.65
71640;BMP280;60912;48.968;10.124;2023-02-26T19:47:55;96847.81;;;-0.72
71640;BMP280;60912;48.968;10.124;2023-02-26T19:50:24;96850.53;;;-0.72
71640;BMP280;60912;48.968;10.124;2023-02-26T19:52:52;96849.34;;;-0.80
71640;BMP280;60912;48.968;10.124;2023-02-26T19:55:57;96849.50;;;-0.83
71640;BMP280;60912;48.968;10.124;2023-02-26T20:02:02;96866.16;;;-0.76
71640;BMP280;60912;48.968;10.124;2023-02-26T20:04:34;96859.88;;;-0.82
71640;BMP280;60912;48.968;10.124;2023-02-26T20:06:59;96861.09;;;-0.92
71640;BMP280;60912;48.968;10.124;2023-02-26T20:09:25;96870.53;;;-0.87
71640;BMP280;60912;48.968;10.124;2023-02-26T20:12:05;96858.41;;;-0.92
71640;BMP280;60912;48.968;10.124;2023-02-26T20:14:39;96868.00;;;-0.91
71640;BMP280;60912;48.968;10.124;2023-02-26T20:17:10;96872.97;;;-0.89